This is the latest recevied weather packets stored in our database for station/object N4OOJ-13. If no packets are shown the sender has not sent any weather packets the latest 10 day(s).
| Time | Temp. | Humidity | Pressure | Rain* | Wind** | Luminosity | Snow |
|---|---|---|---|---|---|---|---|
| 1778197226 | 23.33° C | 98% | 1011.2 hPa | 0 mm | - | - | - |
| 1778196620 | 24.44° C | 95% | 1011.3 hPa | 0 mm | - | - | - |
| 1778196020 | 24.44° C | 94% | 1011.1 hPa | 0 mm | - | - | - |
| 1778195426 | 24.44° C | 94% | 1011.1 hPa | 0 mm | - | - | - |
| 1778194820 | 24.44° C | 96% | 1011.1 hPa | 0 mm | - | - | - |
| 1778194226 | 23.89° C | 99% | 1011 hPa | 0 mm | - | - | - |
| 1778193626 | 23.33° C | 99% | 1011.2 hPa | 0 mm | - | - | - |
| 1778193026 | 23.33° C | 99% | 1011.1 hPa | 0 mm | - | - | - |
| 1778192419 | 23.33° C | 98% | 1011 hPa | 0 mm | - | - | - |
| 1778191821 | 23.89° C | 98% | 1011 hPa | 0 mm | - | - | - |
| 1778191233 | 23.89° C | 96% | 1011 hPa | 0 mm | - | - | - |
| 1778190631 | 24.44° C | 94% | 1011 hPa | 0 mm | - | - | - |
| 1778190020 | 24.44° C | 96% | 1010.9 hPa | 0 mm | - | - | - |
| 1778189427 | 24.44° C | 97% | 1010.9 hPa | 0 mm | - | - | - |
| 1778188821 | 23.89° C | 99% | 1011 hPa | 0.51 mm | - | - | - |
| 1778188221 | 23.89° C | 98% | 1011 hPa | 3.05 mm | - | - | - |
| 1778187616 | 22.78° C | 99% | 1011 hPa | 6.35 mm | - | - | - |
| 1778187029 | 22.78° C | 99% | 1011.1 hPa | 10.67 mm | - | - | - |
| 1778186424 | 22.22° C | 99% | 1011.2 hPa | 12.19 mm | - | - | - |
| 1778185824 | 21.67° C | 99% | 1011.2 hPa | 12.7 mm | - | - | - |
| 1778185218 | 21.67° C | 99% | 1011.3 hPa | 12.19 mm | - | - | - |
| 1778184618 | 21.11° C | 99% | 1011.6 hPa | 9.91 mm | - | - | - |
| 1778184018 | 21.11° C | 99% | 1011.8 hPa | 7.37 mm | - | - | - |
| 1778183417 | 21.67° C | 99% | 1011.8 hPa | 5.33 mm | - | - | - |
| 1778182825 | 21.67° C | 99% | 1011.9 hPa | 6.1 mm | - | - | - |
* Rain latest hour (hover to see other rain measurements)
** Current wind speed in m/s (hover to see current wind gust speed)